sensor_id;sensor_type;location;lat;lon;timestamp;temperature;humidity
21582;DHT22;10952;50.836;4.348;2022-07-26T00:01:46;19.30;99.90
21582;DHT22;10952;50.836;4.348;2022-07-26T00:04:13;19.20;99.90
21582;DHT22;10952;50.836;4.348;2022-07-26T00:06:42;19.20;99.90
21582;DHT22;10952;50.836;4.348;2022-07-26T00:09:09;19.20;99.90
21582;DHT22;10952;50.836;4.348;2022-07-26T00:11:38;19.20;99.90
21582;DHT22;10952;50.836;4.348;2022-07-26T00:14:10;19.10;99.90
21582;DHT22;10952;50.836;4.348;2022-07-26T00:16:39;19.10;99.90
21582;DHT22;10952;50.836;4.348;2022-07-26T00:19:08;19.10;99.90
21582;DHT22;10952;50.836;4.348;2022-07-26T00:21:36;19.10;99.90
21582;DHT22;10952;50.836;4.348;2022-07-26T00:24:14;19.20;99.90
21582;DHT22;10952;50.836;4.348;2022-07-26T00:26:48;19.10;99.90
21582;DHT22;10952;50.836;4.348;2022-07-26T00:29:13;19.10;99.90
21582;DHT22;10952;50.836;4.348;2022-07-26T00:31:42;19.10;99.90
21582;DHT22;10952;50.836;4.348;2022-07-26T00:34:08;19.20;99.90
21582;DHT22;10952;50.836;4.348;2022-07-26T00:36:33;19.20;99.90
21582;DHT22;10952;50.836;4.348;2022-07-26T00:38:59;19.20;99.90
21582;DHT22;10952;50.836;4.348;2022-07-26T00:41:24;19.10;99.90
21582;DHT22;10952;50.836;4.348;2022-07-26T00:43:57;19.10;99.90
21582;DHT22;10952;50.836;4.348;2022-07-26T00:46:24;19.10;99.90
21582;DHT22;10952;50.836;4.348;2022-07-26T00:48:51;19.00;99.90
21582;DHT22;10952;50.836;4.348;2022-07-26T00:51:17;19.00;99.90
21582;DHT22;10952;50.836;4.348;2022-07-26T00:53:44;18.90;99.90
21582;DHT22;10952;50.836;4.348;2022-07-26T00:56:12;19.00;99.90
21582;DHT22;10952;50.836;4.348;2022-07-26T00:58:39;19.00;99.90
21582;DHT22;10952;50.836;4.348;2022-07-26T01:01:08;19.10;99.90
21582;DHT22;10952;50.836;4.348;2022-07-26T01:03:34;19.20;99.90
21582;DHT22;10952;50.836;4.348;2022-07-26T01:06:16;19.40;99.90
21582;DHT22;10952;50.836;4.348;2022-07-26T01:08:42;19.30;99.90
21582;DHT22;10952;50.836;4.348;2022-07-26T01:11:08;19.30;99.90
21582;DHT22;10952;50.836;4.348;2022-07-26T01:13:35;19.30;99.90
21582;DHT22;10952;50.836;4.348;2022-07-26T01:16:03;19.30;99.90
21582;DHT22;10952;50.836;4.348;2022-07-26T01:18:32;19.20;99.90
21582;DHT22;10952;50.836;4.348;2022-07-26T01:21:01;19.20;99.90
21582;DHT22;10952;50.836;4.348;2022-07-26T01:23:29;19.10;99.90
21582;DHT22;10952;50.836;4.348;2022-07-26T01:26:01;19.20;99.90
21582;DHT22;10952;50.836;4.348;2022-07-26T01:28:29;19.10;99.90
21582;DHT22;10952;50.836;4.348;2022-07-26T01:31:03;19.00;99.90
21582;DHT22;10952;50.836;4.348;2022-07-26T01:33:32;19.10;99.90
21582;DHT22;10952;50.836;4.348;2022-07-26T01:36:01;19.10;99.90
21582;DHT22;10952;50.836;4.348;2022-07-26T01:38:30;19.10;99.90
21582;DHT22;10952;50.836;4.348;2022-07-26T01:40:59;19.10;99.90
21582;DHT22;10952;50.836;4.348;2022-07-26T01:43:28;19.10;99.90
21582;DHT22;10952;50.836;4.348;2022-07-26T01:45:57;19.00;99.90
21582;DHT22;10952;50.836;4.348;2022-07-26T01:48:23;19.10;99.90
21582;DHT22;10952;50.836;4.348;2022-07-26T01:50:49;19.10;99.90
21582;DHT22;10952;50.836;4.348;2022-07-26T01:53:17;19.00;99.90
21582;DHT22;10952;50.836;4.348;2022-07-26T01:55:45;19.10;99.90
21582;DHT22;10952;50.836;4.348;2022-07-26T01:58:11;19.10;99.90
21582;DHT22;10952;50.836;4.348;2022-07-26T02:00:37;19.00;99.90
21582;DHT22;10952;50.836;4.348;2022-07-26T02:03:03;19.00;99.90
21582;DHT22;10952;50.836;4.348;2022-07-26T02:05:29;18.90;99.90
21582;DHT22;10952;50.836;4.348;2022-07-26T02:07:55;19.00;99.90
21582;DHT22;10952;50.836;4.348;2022-07-26T02:10:24;19.00;99.90
21582;DHT22;10952;50.836;4.348;2022-07-26T02:13:13;19.10;99.90
21582;DHT22;10952;50.836;4.348;2022-07-26T02:15:43;19.10;99.90
21582;DHT22;10952;50.836;4.348;2022-07-26T02:18:13;19.10;99.90
21582;DHT22;10952;50.836;4.348;2022-07-26T02:20:40;19.00;99.90
21582;DHT22;10952;50.836;4.348;2022-07-26T02:23:09;19.00;99.90
21582;DHT22;10952;50.836;4.348;2022-07-26T02:25:37;19.10;99.90
21582;DHT22;10952;50.836;4.348;2022-07-26T02:28:06;19.10;99.90
21582;DHT22;10952;50.836;4.348;2022-07-26T02:30:32;19.20;99.90
21582;DHT22;10952;50.836;4.348;2022-07-26T02:33:01;19.20;99.90
21582;DHT22;10952;50.836;4.348;2022-07-26T02:35:26;19.20;99.90
21582;DHT22;10952;50.836;4.348;2022-07-26T02:41:14;19.00;99.90
21582;DHT22;10952;50.836;4.348;2022-07-26T02:43:43;19.00;99.90
21582;DHT22;10952;50.836;4.348;2022-07-26T02:46:09;19.00;99.90
21582;DHT22;10952;50.836;4.348;2022-07-26T02:48:38;19.10;99.90
21582;DHT22;10952;50.836;4.348;2022-07-26T02:51:06;19.10;99.90
21582;DHT22;10952;50.836;4.348;2022-07-26T02:53:33;19.20;99.90
21582;DHT22;10952;50.836;4.348;2022-07-26T02:56:02;19.20;99.90
21582;DHT22;10952;50.836;4.348;2022-07-26T02:58:27;19.10;99.90
21582;DHT22;10952;50.836;4.348;2022-07-26T03:00:53;19.10;99.90
21582;DHT22;10952;50.836;4.348;2022-07-26T03:03:19;19.00;99.90
21582;DHT22;10952;50.836;4.348;2022-07-26T03:05:44;18.90;99.90
21582;DHT22;10952;50.836;4.348;2022-07-26T03:08:10;18.90;99.90
21582;DHT22;10952;50.836;4.348;2022-07-26T03:10:36;18.90;99.90
21582;DHT22;10952;50.836;4.348;2022-07-26T03:13:01;18.90;99.90
21582;DHT22;10952;50.836;4.348;2022-07-26T03:15:27;19.00;99.90
21582;DHT22;10952;50.836;4.348;2022-07-26T03:17:53;19.10;99.90
21582;DHT22;10952;50.836;4.348;2022-07-26T03:20:19;19.00;99.90
21582;DHT22;10952;50.836;4.348;2022-07-26T03:22:45;18.90;99.90
21582;DHT22;10952;50.836;4.348;2022-07-26T03:25:10;18.80;99.90
21582;DHT22;10952;50.836;4.348;2022-07-26T03:27:36;18.80;99.90
21582;DHT22;10952;50.836;4.348;2022-07-26T03:30:02;18.60;99.90
21582;DHT22;10952;50.836;4.348;2022-07-26T03:32:28;18.70;99.90
21582;DHT22;10952;50.836;4.348;2022-07-26T03:34:55;18.80;99.90
21582;DHT22;10952;50.836;4.348;2022-07-26T03:37:22;18.80;99.90
21582;DHT22;10952;50.836;4.348;2022-07-26T03:39:47;18.80;99.90
21582;DHT22;10952;50.836;4.348;2022-07-26T03:42:13;18.90;99.90
21582;DHT22;10952;50.836;4.348;2022-07-26T03:44:40;19.00;99.90
21582;DHT22;10952;50.836;4.348;2022-07-26T03:47:06;19.00;99.90
21582;DHT22;10952;50.836;4.348;2022-07-26T03:49:33;19.10;99.90
21582;DHT22;10952;50.836;4.348;2022-07-26T03:51:59;18.90;99.90
21582;DHT22;10952;50.836;4.348;2022-07-26T03:54:25;18.90;99.90
21582;DHT22;10952;50.836;4.348;2022-07-26T03:56:51;18.90;99.90
21582;DHT22;10952;50.836;4.348;2022-07-26T03:59:17;18.90;99.90
21582;DHT22;10952;50.836;4.348;2022-07-26T04:01:46;18.90;99.90
21582;DHT22;10952;50.836;4.348;2022-07-26T04:04:14;18.90;99.90
21582;DHT22;10952;50.836;4.348;2022-07-26T04:06:42;18.90;99.90
21582;DHT22;10952;50.836;4.348;2022-07-26T04:09:10;18.80;99.90
21582;DHT22;10952;50.836;4.348;2022-07-26T04:11:35;18.90;99.90
21582;DHT22;10952;50.836;4.348;2022-07-26T04:14:03;18.80;99.90
21582;DHT22;10952;50.836;4.348;2022-07-26T04:16:28;18.70;99.90
21582;DHT22;10952;50.836;4.348;2022-07-26T04:18:54;18.70;99.90
21582;DHT22;10952;50.836;4.348;2022-07-26T04:21:21;18.70;99.90
21582;DHT22;10952;50.836;4.348;2022-07-26T04:23:47;18.80;99.90
21582;DHT22;10952;50.836;4.348;2022-07-26T04:26:12;19.00;99.90
21582;DHT22;10952;50.836;4.348;2022-07-26T04:28:40;19.00;99.90
21582;DHT22;10952;50.836;4.348;2022-07-26T04:31:07;19.00;99.90
21582;DHT22;10952;50.836;4.348;2022-07-26T04:33:34;18.90;99.90
21582;DHT22;10952;50.836;4.348;2022-07-26T04:36:01;18.80;99.90
21582;DHT22;10952;50.836;4.348;2022-07-26T04:38:27;18.80;99.90
21582;DHT22;10952;50.836;4.348;2022-07-26T04:40:53;18.60;99.90
21582;DHT22;10952;50.836;4.348;2022-07-26T04:43:20;18.60;99.90
21582;DHT22;10952;50.836;4.348;2022-07-26T04:45:47;18.60;99.90
21582;DHT22;10952;50.836;4.348;2022-07-26T04:48:14;18.70;99.90
21582;DHT22;10952;50.836;4.348;2022-07-26T04:50:40;18.80;99.90
21582;DHT22;10952;50.836;4.348;2022-07-26T04:53:05;18.70;99.90
21582;DHT22;10952;50.836;4.348;2022-07-26T04:55:31;18.80;99.90
21582;DHT22;10952;50.836;4.348;2022-07-26T04:57:57;18.80;99.90
21582;DHT22;10952;50.836;4.348;2022-07-26T05:00:24;18.90;99.90
21582;DHT22;10952;50.836;4.348;2022-07-26T05:02:52;18.90;99.90
21582;DHT22;10952;50.836;4.348;2022-07-26T05:05:18;18.90;99.90
21582;DHT22;10952;50.836;4.348;2022-07-26T05:07:46;18.90;99.90
21582;DHT22;10952;50.836;4.348;2022-07-26T05:10:13;18.90;99.90
21582;DHT22;10952;50.836;4.348;2022-07-26T05:12:39;18.80;99.90
21582;DHT22;10952;50.836;4.348;2022-07-26T05:15:06;18.70;99.90
21582;DHT22;10952;50.836;4.348;2022-07-26T05:17:32;18.70;99.90
21582;DHT22;10952;50.836;4.348;2022-07-26T05:19:59;18.70;99.90
21582;DHT22;10952;50.836;4.348;2022-07-26T05:22:24;18.70;99.90
21582;DHT22;10952;50.836;4.348;2022-07-26T05:24:51;18.70;99.90
21582;DHT22;10952;50.836;4.348;2022-07-26T05:27:17;18.70;99.90
21582;DHT22;10952;50.836;4.348;2022-07-26T05:29:42;18.80;99.90
21582;DHT22;10952;50.836;4.348;2022-07-26T05:32:08;18.80;99.90
21582;DHT22;10952;50.836;4.348;2022-07-26T05:34:36;18.80;99.90
21582;DHT22;10952;50.836;4.348;2022-07-26T05:37:03;18.90;99.90
21582;DHT22;10952;50.836;4.348;2022-07-26T05:39:30;18.80;99.90
21582;DHT22;10952;50.836;4.348;2022-07-26T05:41:55;18.80;99.90
21582;DHT22;10952;50.836;4.348;2022-07-26T05:44:21;18.70;99.90
21582;DHT22;10952;50.836;4.348;2022-07-26T05:46:49;18.70;99.90
21582;DHT22;10952;50.836;4.348;2022-07-26T05:49:19;18.80;99.90
21582;DHT22;10952;50.836;4.348;2022-07-26T05:51:45;18.90;99.90
21582;DHT22;10952;50.836;4.348;2022-07-26T05:54:10;18.90;99.90
21582;DHT22;10952;50.836;4.348;2022-07-26T05:56:36;19.00;99.90
21582;DHT22;10952;50.836;4.348;2022-07-26T05:59:05;19.20;99.90
21582;DHT22;10952;50.836;4.348;2022-07-26T06:01:31;19.30;99.90
21582;DHT22;10952;50.836;4.348;2022-07-26T06:04:01;19.50;99.90
21582;DHT22;10952;50.836;4.348;2022-07-26T06:06:28;19.60;99.90
21582;DHT22;10952;50.836;4.348;2022-07-26T06:08:53;19.60;99.90
21582;DHT22;10952;50.836;4.348;2022-07-26T06:11:20;19.70;99.90
21582;DHT22;10952;50.836;4.348;2022-07-26T06:13:49;19.70;99.90
21582;DHT22;10952;50.836;4.348;2022-07-26T06:16:21;19.90;99.90
21582;DHT22;10952;50.836;4.348;2022-07-26T06:18:50;20.10;99.90
21582;DHT22;10952;50.836;4.348;2022-07-26T06:21:15;20.10;99.90
21582;DHT22;10952;50.836;4.348;2022-07-26T06:23:41;20.20;99.90
21582;DHT22;10952;50.836;4.348;2022-07-26T06:26:07;20.10;99.90
21582;DHT22;10952;50.836;4.348;2022-07-26T06:28:35;20.10;99.90
21582;DHT22;10952;50.836;4.348;2022-07-26T06:31:02;20.30;99.90
21582;DHT22;10952;50.836;4.348;2022-07-26T06:33:28;20.30;99.90
21582;DHT22;10952;50.836;4.348;2022-07-26T06:35:54;20.40;99.90
21582;DHT22;10952;50.836;4.348;2022-07-26T06:38:23;20.50;99.90
21582;DHT22;10952;50.836;4.348;2022-07-26T06:40:50;20.40;99.90
21582;DHT22;10952;50.836;4.348;2022-07-26T06:43:18;20.10;99.90
21582;DHT22;10952;50.836;4.348;2022-07-26T06:45:46;20.00;99.90
21582;DHT22;10952;50.836;4.348;2022-07-26T06:48:12;20.00;99.90
21582;DHT22;10952;50.836;4.348;2022-07-26T06:50:38;20.00;99.90
21582;DHT22;10952;50.836;4.348;2022-07-26T06:53:05;19.80;99.90
21582;DHT22;10952;50.836;4.348;2022-07-26T06:55:32;19.80;99.90
21582;DHT22;10952;50.836;4.348;2022-07-26T06:58:00;19.80;99.90
21582;DHT22;10952;50.836;4.348;2022-07-26T07:00:25;19.90;99.90
21582;DHT22;10952;50.836;4.348;2022-07-26T07:02:51;19.80;99.90
21582;DHT22;10952;50.836;4.348;2022-07-26T07:05:18;19.90;99.90
21582;DHT22;10952;50.836;4.348;2022-07-26T07:07:45;19.90;99.90
21582;DHT22;10952;50.836;4.348;2022-07-26T07:10:14;20.00;99.90
21582;DHT22;10952;50.836;4.348;2022-07-26T07:12:40;20.20;99.90
21582;DHT22;10952;50.836;4.348;2022-07-26T07:15:08;20.30;99.90
21582;DHT22;10952;50.836;4.348;2022-07-26T07:17:34;20.20;99.90
21582;DHT22;10952;50.836;4.348;2022-07-26T07:20:05;20.30;99.90
21582;DHT22;10952;50.836;4.348;2022-07-26T07:22:31;20.30;99.90
21582;DHT22;10952;50.836;4.348;2022-07-26T07:24:57;20.40;99.90
21582;DHT22;10952;50.836;4.348;2022-07-26T07:27:23;20.40;99.90
21582;DHT22;10952;50.836;4.348;2022-07-26T07:29:48;20.50;99.90
21582;DHT22;10952;50.836;4.348;2022-07-26T07:32:14;20.60;99.90
21582;DHT22;10952;50.836;4.348;2022-07-26T07:34:40;20.70;99.90
21582;DHT22;10952;50.836;4.348;2022-07-26T07:37:05;20.60;99.90
21582;DHT22;10952;50.836;4.348;2022-07-26T07:39:31;20.70;99.90
21582;DHT22;10952;50.836;4.348;2022-07-26T07:41:58;20.80;99.90
21582;DHT22;10952;50.836;4.348;2022-07-26T07:44:24;20.70;99.90
21582;DHT22;10952;50.836;4.348;2022-07-26T07:46:49;20.90;99.90
21582;DHT22;10952;50.836;4.348;2022-07-26T07:49:15;21.00;99.90
21582;DHT22;10952;50.836;4.348;2022-07-26T07:51:42;21.10;99.90
21582;DHT22;10952;50.836;4.348;2022-07-26T07:54:07;20.90;99.90
21582;DHT22;10952;50.836;4.348;2022-07-26T07:56:33;20.80;99.90
21582;DHT22;10952;50.836;4.348;2022-07-26T07:58:59;20.70;99.90
21582;DHT22;10952;50.836;4.348;2022-07-26T08:01:25;20.60;99.90
21582;DHT22;10952;50.836;4.348;2022-07-26T08:03:51;20.50;99.90
21582;DHT22;10952;50.836;4.348;2022-07-26T08:06:16;20.50;99.90
21582;DHT22;10952;50.836;4.348;2022-07-26T08:08:42;20.60;99.90
21582;DHT22;10952;50.836;4.348;2022-07-26T08:11:08;20.70;99.90
21582;DHT22;10952;50.836;4.348;2022-07-26T08:13:34;20.30;99.90
21582;DHT22;10952;50.836;4.348;2022-07-26T08:15:59;20.40;99.90
21582;DHT22;10952;50.836;4.348;2022-07-26T08:18:25;20.30;99.90
21582;DHT22;10952;50.836;4.348;2022-07-26T08:20:52;20.30;99.90
21582;DHT22;10952;50.836;4.348;2022-07-26T08:23:19;20.40;99.90
21582;DHT22;10952;50.836;4.348;2022-07-26T08:25:46;20.50;99.90
21582;DHT22;10952;50.836;4.348;2022-07-26T08:28:11;20.40;99.90
21582;DHT22;10952;50.836;4.348;2022-07-26T08:30:38;20.60;99.90
21582;DHT22;10952;50.836;4.348;2022-07-26T08:33:03;20.70;99.90
21582;DHT22;10952;50.836;4.348;2022-07-26T08:35:29;20.50;99.90
21582;DHT22;10952;50.836;4.348;2022-07-26T08:37:57;20.50;99.90
21582;DHT22;10952;50.836;4.348;2022-07-26T08:40:23;20.80;99.90
21582;DHT22;10952;50.836;4.348;2022-07-26T08:42:54;20.90;99.90
21582;DHT22;10952;50.836;4.348;2022-07-26T08:45:25;21.10;99.90
21582;DHT22;10952;50.836;4.348;2022-07-26T08:47:51;21.10;99.90
21582;DHT22;10952;50.836;4.348;2022-07-26T08:50:17;21.10;99.90
21582;DHT22;10952;50.836;4.348;2022-07-26T08:52:45;21.30;99.90
21582;DHT22;10952;50.836;4.348;2022-07-26T08:55:15;21.30;99.90
21582;DHT22;10952;50.836;4.348;2022-07-26T08:57:41;21.50;99.90
21582;DHT22;10952;50.836;4.348;2022-07-26T09:00:27;21.40;99.90
21582;DHT22;10952;50.836;4.348;2022-07-26T09:02:56;21.40;99.90
21582;DHT22;10952;50.836;4.348;2022-07-26T09:05:30;21.50;99.90
21582;DHT22;10952;50.836;4.348;2022-07-26T09:07:57;21.70;99.90
21582;DHT22;10952;50.836;4.348;2022-07-26T09:10:24;21.60;99.90
21582;DHT22;10952;50.836;4.348;2022-07-26T09:12:56;21.50;99.90
21582;DHT22;10952;50.836;4.348;2022-07-26T09:15:27;21.80;99.90
21582;DHT22;10952;50.836;4.348;2022-07-26T09:17:54;22.10;99.90
21582;DHT22;10952;50.836;4.348;2022-07-26T09:20:24;22.30;99.90
21582;DHT22;10952;50.836;4.348;2022-07-26T09:25:29;22.50;99.90
21582;DHT22;10952;50.836;4.348;2022-07-26T09:27:55;22.60;99.90
21582;DHT22;10952;50.836;4.348;2022-07-26T09:30:21;22.50;99.90
21582;DHT22;10952;50.836;4.348;2022-07-26T09:33:05;22.40;99.90
21582;DHT22;10952;50.836;4.348;2022-07-26T09:35:34;22.20;99.90
21582;DHT22;10952;50.836;4.348;2022-07-26T09:38:11;22.20;99.90
21582;DHT22;10952;50.836;4.348;2022-07-26T09:40:37;22.30;99.90
21582;DHT22;10952;50.836;4.348;2022-07-26T09:43:05;22.40;99.90
21582;DHT22;10952;50.836;4.348;2022-07-26T09:45:33;22.30;99.90
21582;DHT22;10952;50.836;4.348;2022-07-26T09:47:59;22.40;99.90
21582;DHT22;10952;50.836;4.348;2022-07-26T09:50:28;22.30;99.90
21582;DHT22;10952;50.836;4.348;2022-07-26T09:55:23;22.80;99.90
21582;DHT22;10952;50.836;4.348;2022-07-26T09:57:50;23.80;99.90
21582;DHT22;10952;50.836;4.348;2022-07-26T10:00:16;25.40;99.90
21582;DHT22;10952;50.836;4.348;2022-07-26T10:02:43;26.90;99.90
21582;DHT22;10952;50.836;4.348;2022-07-26T10:05:08;28.00;99.90
21582;DHT22;10952;50.836;4.348;2022-07-26T10:07:36;28.20;99.90
21582;DHT22;10952;50.836;4.348;2022-07-26T10:10:11;29.20;99.90
21582;DHT22;10952;50.836;4.348;2022-07-26T10:12:39;29.40;98.30
21582;DHT22;10952;50.836;4.348;2022-07-26T10:15:36;29.10;97.80
21582;DHT22;10952;50.836;4.348;2022-07-26T10:18:05;29.70;97.20
21582;DHT22;10952;50.836;4.348;2022-07-26T10:23:44;30.90;94.40
21582;DHT22;10952;50.836;4.348;2022-07-26T10:34:08;28.10;96.70
21582;DHT22;10952;50.836;4.348;2022-07-26T10:36:39;28.30;96.10
21582;DHT22;10952;50.836;4.348;2022-07-26T10:39:15;29.10;95.30
21582;DHT22;10952;50.836;4.348;2022-07-26T10:41:58;28.10;96.20
21582;DHT22;10952;50.836;4.348;2022-07-26T10:44:27;26.90;97.80
21582;DHT22;10952;50.836;4.348;2022-07-26T10:47:14;26.10;98.90
21582;DHT22;10952;50.836;4.348;2022-07-26T10:49:51;25.40;99.90
21582;DHT22;10952;50.836;4.348;2022-07-26T10:52:20;25.00;99.90
21582;DHT22;10952;50.836;4.348;2022-07-26T10:59:57;23.80;99.90
21582;DHT22;10952;50.836;4.348;2022-07-26T11:02:25;23.70;99.90
21582;DHT22;10952;50.836;4.348;2022-07-26T11:05:13;23.40;99.90
21582;DHT22;10952;50.836;4.348;2022-07-26T11:10:13;23.20;99.90
21582;DHT22;10952;50.836;4.348;2022-07-26T11:12:40;23.10;99.90
21582;DHT22;10952;50.836;4.348;2022-07-26T11:15:18;23.10;99.90
21582;DHT22;10952;50.836;4.348;2022-07-26T11:17:44;23.20;99.90
21582;DHT22;10952;50.836;4.348;2022-07-26T11:20:10;23.30;99.90
21582;DHT22;10952;50.836;4.348;2022-07-26T11:22:48;22.90;99.90
21582;DHT22;10952;50.836;4.348;2022-07-26T11:25:20;22.50;99.90
21582;DHT22;10952;50.836;4.348;2022-07-26T11:28:03;22.60;99.90
21582;DHT22;10952;50.836;4.348;2022-07-26T11:30:29;23.10;99.90
21582;DHT22;10952;50.836;4.348;2022-07-26T11:32:55;23.30;99.90
21582;DHT22;10952;50.836;4.348;2022-07-26T11:35:24;24.00;99.90
21582;DHT22;10952;50.836;4.348;2022-07-26T11:37:57;24.40;99.90
21582;DHT22;10952;50.836;4.348;2022-07-26T11:40:45;24.60;99.90
21582;DHT22;10952;50.836;4.348;2022-07-26T11:43:11;24.70;99.90
21582;DHT22;10952;50.836;4.348;2022-07-26T11:45:38;24.60;99.90
21582;DHT22;10952;50.836;4.348;2022-07-26T11:48:05;24.50;99.90
21582;DHT22;10952;50.836;4.348;2022-07-26T11:50:31;24.60;99.90
21582;DHT22;10952;50.836;4.348;2022-07-26T11:52:57;24.30;99.90
21582;DHT22;10952;50.836;4.348;2022-07-26T11:55:28;23.80;99.90
21582;DHT22;10952;50.836;4.348;2022-07-26T11:57:54;23.30;99.90
21582;DHT22;10952;50.836;4.348;2022-07-26T12:00:22;23.10;99.90
21582;DHT22;10952;50.836;4.348;2022-07-26T12:02:50;23.00;99.90
21582;DHT22;10952;50.836;4.348;2022-07-26T12:05:21;23.10;99.90
21582;DHT22;10952;50.836;4.348;2022-07-26T12:07:58;23.20;99.90
21582;DHT22;10952;50.836;4.348;2022-07-26T12:10:25;23.30;99.90
21582;DHT22;10952;50.836;4.348;2022-07-26T12:13:11;23.10;99.90
21582;DHT22;10952;50.836;4.348;2022-07-26T12:15:49;23.20;99.90
21582;DHT22;10952;50.836;4.348;2022-07-26T12:18:27;23.00;99.90
21582;DHT22;10952;50.836;4.348;2022-07-26T12:21:01;22.80;99.90
21582;DHT22;10952;50.836;4.348;2022-07-26T12:23:42;22.70;99.90
21582;DHT22;10952;50.836;4.348;2022-07-26T12:26:19;22.70;99.90
21582;DHT22;10952;50.836;4.348;2022-07-26T12:28:45;22.40;99.90
21582;DHT22;10952;50.836;4.348;2022-07-26T12:31:31;22.50;99.90
21582;DHT22;10952;50.836;4.348;2022-07-26T12:33:57;22.50;99.90
21582;DHT22;10952;50.836;4.348;2022-07-26T12:36:23;22.70;99.90
21582;DHT22;10952;50.836;4.348;2022-07-26T12:38:49;22.80;99.90
21582;DHT22;10952;50.836;4.348;2022-07-26T12:41:50;22.90;99.90
21582;DHT22;10952;50.836;4.348;2022-07-26T12:44:16;23.00;99.90
21582;DHT22;10952;50.836;4.348;2022-07-26T12:46:42;22.60;99.90
21582;DHT22;10952;50.836;4.348;2022-07-26T12:49:11;22.50;99.90
21582;DHT22;10952;50.836;4.348;2022-07-26T12:51:36;22.90;99.90
21582;DHT22;10952;50.836;4.348;2022-07-26T12:54:03;23.00;99.90
21582;DHT22;10952;50.836;4.348;2022-07-26T12:56:31;23.30;99.90
21582;DHT22;10952;50.836;4.348;2022-07-26T12:58:57;23.50;99.90
21582;DHT22;10952;50.836;4.348;2022-07-26T13:01:29;23.80;99.90
21582;DHT22;10952;50.836;4.348;2022-07-26T13:04:00;23.80;99.90
21582;DHT22;10952;50.836;4.348;2022-07-26T13:06:28;23.90;99.90
21582;DHT22;10952;50.836;4.348;2022-07-26T13:08:54;23.80;99.90
21582;DHT22;10952;50.836;4.348;2022-07-26T13:11:20;23.90;99.90
21582;DHT22;10952;50.836;4.348;2022-07-26T13:13:46;23.40;99.90
21582;DHT22;10952;50.836;4.348;2022-07-26T13:16:12;23.10;99.90
21582;DHT22;10952;50.836;4.348;2022-07-26T13:18:37;23.10;99.90
21582;DHT22;10952;50.836;4.348;2022-07-26T13:21:04;23.00;99.90
21582;DHT22;10952;50.836;4.348;2022-07-26T13:23:30;22.70;99.90
21582;DHT22;10952;50.836;4.348;2022-07-26T13:25:56;22.40;99.90
21582;DHT22;10952;50.836;4.348;2022-07-26T13:28:21;22.50;99.90
21582;DHT22;10952;50.836;4.348;2022-07-26T13:30:47;22.50;99.90
21582;DHT22;10952;50.836;4.348;2022-07-26T13:33:12;22.70;99.90
21582;DHT22;10952;50.836;4.348;2022-07-26T13:35:38;23.00;99.90
21582;DHT22;10952;50.836;4.348;2022-07-26T13:38:06;22.80;99.90
21582;DHT22;10952;50.836;4.348;2022-07-26T13:40:32;22.80;99.90
21582;DHT22;10952;50.836;4.348;2022-07-26T13:42:59;22.40;99.90
21582;DHT22;10952;50.836;4.348;2022-07-26T13:45:24;22.40;99.90
21582;DHT22;10952;50.836;4.348;2022-07-26T13:47:50;22.50;99.90
21582;DHT22;10952;50.836;4.348;2022-07-26T13:50:17;22.40;99.90
21582;DHT22;10952;50.836;4.348;2022-07-26T13:52:42;22.00;99.90
21582;DHT22;10952;50.836;4.348;2022-07-26T13:55:08;21.80;99.90
21582;DHT22;10952;50.836;4.348;2022-07-26T13:57:34;21.90;99.90
21582;DHT22;10952;50.836;4.348;2022-07-26T13:59:59;21.90;99.90
21582;DHT22;10952;50.836;4.348;2022-07-26T14:02:25;22.00;99.90
21582;DHT22;10952;50.836;4.348;2022-07-26T14:04:51;22.30;99.90
21582;DHT22;10952;50.836;4.348;2022-07-26T14:07:17;22.50;99.90
21582;DHT22;10952;50.836;4.348;2022-07-26T14:09:43;22.70;99.90
21582;DHT22;10952;50.836;4.348;2022-07-26T14:12:12;22.60;99.90
21582;DHT22;10952;50.836;4.348;2022-07-26T14:14:38;22.10;99.90
21582;DHT22;10952;50.836;4.348;2022-07-26T14:17:04;21.90;99.90
21582;DHT22;10952;50.836;4.348;2022-07-26T14:19:29;21.70;99.90
21582;DHT22;10952;50.836;4.348;2022-07-26T14:21:55;21.90;99.90
21582;DHT22;10952;50.836;4.348;2022-07-26T14:24:21;22.30;99.90
21582;DHT22;10952;50.836;4.348;2022-07-26T14:26:47;22.60;99.90
21582;DHT22;10952;50.836;4.348;2022-07-26T14:29:19;23.10;99.90
21582;DHT22;10952;50.836;4.348;2022-07-26T14:31:45;23.20;99.90
21582;DHT22;10952;50.836;4.348;2022-07-26T14:34:17;23.50;99.90
21582;DHT22;10952;50.836;4.348;2022-07-26T14:36:46;23.80;99.90
21582;DHT22;10952;50.836;4.348;2022-07-26T14:39:11;24.00;99.90
21582;DHT22;10952;50.836;4.348;2022-07-26T14:41:38;24.00;99.90
21582;DHT22;10952;50.836;4.348;2022-07-26T14:44:04;23.80;99.90
21582;DHT22;10952;50.836;4.348;2022-07-26T14:46:30;23.20;99.90
21582;DHT22;10952;50.836;4.348;2022-07-26T14:48:55;22.90;99.90
21582;DHT22;10952;50.836;4.348;2022-07-26T14:51:21;22.90;99.90
21582;DHT22;10952;50.836;4.348;2022-07-26T14:53:46;22.90;99.90
21582;DHT22;10952;50.836;4.348;2022-07-26T14:56:12;23.00;99.90
21582;DHT22;10952;50.836;4.348;2022-07-26T14:58:38;22.50;99.90
21582;DHT22;10952;50.836;4.348;2022-07-26T15:01:03;22.20;99.90
21582;DHT22;10952;50.836;4.348;2022-07-26T15:03:29;21.80;99.90
21582;DHT22;10952;50.836;4.348;2022-07-26T15:06:00;21.40;99.90
21582;DHT22;10952;50.836;4.348;2022-07-26T15:08:26;21.30;99.90
21582;DHT22;10952;50.836;4.348;2022-07-26T15:10:54;21.50;99.90
21582;DHT22;10952;50.836;4.348;2022-07-26T15:13:20;21.50;99.90
21582;DHT22;10952;50.836;4.348;2022-07-26T15:15:46;21.70;99.90
21582;DHT22;10952;50.836;4.348;2022-07-26T15:18:11;22.00;99.90
21582;DHT22;10952;50.836;4.348;2022-07-26T15:20:40;22.10;99.90
21582;DHT22;10952;50.836;4.348;2022-07-26T15:23:06;22.40;99.90
21582;DHT22;10952;50.836;4.348;2022-07-26T15:25:33;22.80;99.90
21582;DHT22;10952;50.836;4.348;2022-07-26T15:27:58;22.40;99.90
21582;DHT22;10952;50.836;4.348;2022-07-26T15:30:25;22.40;99.90
21582;DHT22;10952;50.836;4.348;2022-07-26T15:32:54;22.30;99.90
21582;DHT22;10952;50.836;4.348;2022-07-26T15:35:20;22.40;99.90
21582;DHT22;10952;50.836;4.348;2022-07-26T15:37:46;22.50;99.90
21582;DHT22;10952;50.836;4.348;2022-07-26T15:40:13;22.50;99.90
21582;DHT22;10952;50.836;4.348;2022-07-26T15:42:41;22.40;99.90
21582;DHT22;10952;50.836;4.348;2022-07-26T15:45:08;22.50;99.90
21582;DHT22;10952;50.836;4.348;2022-07-26T15:47:35;22.50;99.90
21582;DHT22;10952;50.836;4.348;2022-07-26T15:50:02;22.70;99.90
21582;DHT22;10952;50.836;4.348;2022-07-26T15:52:29;23.00;99.90
21582;DHT22;10952;50.836;4.348;2022-07-26T15:54:55;23.10;99.90
21582;DHT22;10952;50.836;4.348;2022-07-26T15:57:21;23.10;99.90
21582;DHT22;10952;50.836;4.348;2022-07-26T15:59:48;23.20;99.90
21582;DHT22;10952;50.836;4.348;2022-07-26T16:02:13;22.90;99.90